KBKD/BKD METAR and TAF weather

Enter ICAO airport designator
Station Type Date Time Source
KBKD METAR 2022/05/24 11:55 UTC NOAA

KBKD 241155Z AUTO 00000KT 5SM BR OVC012 21/20 A2979 RMK AO2 LTG DSNT NW THRU NE 70007 T02140201 10214 20200


Station Type Date Time Source
KBKD Decoded METAR 2022/05/24 11:55 UTC NOAA

Station name not available
May 24, 2022 - 07:55 AM EDT / 2022.05.24 1155 UTC
Wind: Calm:0
Visibility: 5 mile(s):0
Sky conditions: overcast
Weather: mist; Lightning observed
Temperature: 70.5 F (21.4 C)
Dew Point: 68.2 F (20.1 C)
Relative Humidity: 92%
Pressure (altimeter): 29.79 in. Hg (1008 hPa)
ob: KBKD 241155Z AUTO 00000KT 5SM BR OVC012 21/20 A2979 RMK AO2 LTG DSNT NW THRU NE 70007 T02140201 10214 20200
cycle: 12

Station Type Date Time Source
KBKD TAF UTC NOAA

Error!

Example: see airport list